sensor_id;sensor_type;location;lat;lon;timestamp;P1;durP1;ratioP1;P2;durP2;ratioP2
3627;SDS011;1830;49.000;12.074;2023-04-03T00:00:31;4.17;;;3.87;;
3627;SDS011;1830;49.000;12.074;2023-04-03T00:02:58;5.30;;;4.80;;
3627;SDS011;1830;49.000;12.074;2023-04-03T00:05:26;4.60;;;4.20;;
3627;SDS011;1830;49.000;12.074;2023-04-03T00:07:53;4.67;;;4.17;;
3627;SDS011;1830;49.000;12.074;2023-04-03T00:10:20;8.07;;;5.10;;
3627;SDS011;1830;49.000;12.074;2023-04-03T00:12:47;4.70;;;4.30;;
3627;SDS011;1830;49.000;12.074;2023-04-03T00:15:13;5.07;;;4.27;;
3627;SDS011;1830;49.000;12.074;2023-04-03T00:17:40;4.80;;;4.40;;
3627;SDS011;1830;49.000;12.074;2023-04-03T00:20:07;5.83;;;4.30;;
3627;SDS011;1830;49.000;12.074;2023-04-03T00:22:36;5.03;;;4.63;;
3627;SDS011;1830;49.000;12.074;2023-04-03T00:25:03;7.93;;;4.83;;
3627;SDS011;1830;49.000;12.074;2023-04-03T00:27:31;5.27;;;4.83;;
3627;SDS011;1830;49.000;12.074;2023-04-03T00:29:57;4.80;;;4.40;;
3627;SDS011;1830;49.000;12.074;2023-04-03T00:32:24;4.83;;;4.20;;
3627;SDS011;1830;49.000;12.074;2023-04-03T00:34:51;5.03;;;3.73;;
3627;SDS011;1830;49.000;12.074;2023-04-03T00:37:17;7.23;;;4.30;;
3627;SDS011;1830;49.000;12.074;2023-04-03T00:39:47;4.60;;;3.93;;
3627;SDS011;1830;49.000;12.074;2023-04-03T00:42:14;9.60;;;4.50;;
3627;SDS011;1830;49.000;12.074;2023-04-03T00:47:54;4.30;;;3.90;;
3627;SDS011;1830;49.000;12.074;2023-04-03T00:50:24;5.77;;;4.87;;
3627;SDS011;1830;49.000;12.074;2023-04-03T00:52:52;4.40;;;4.00;;
3627;SDS011;1830;49.000;12.074;2023-04-03T00:55:20;7.63;;;4.27;;
3627;SDS011;1830;49.000;12.074;2023-04-03T00:57:47;5.80;;;5.30;;
3627;SDS011;1830;49.000;12.074;2023-04-03T01:00:16;5.70;;;4.13;;
3627;SDS011;1830;49.000;12.074;2023-04-03T01:02:45;5.77;;;4.70;;
3627;SDS011;1830;49.000;12.074;2023-04-03T01:05:13;5.70;;;4.80;;
3627;SDS011;1830;49.000;12.074;2023-04-03T01:07:43;7.10;;;4.50;;
3627;SDS011;1830;49.000;12.074;2023-04-03T01:10:11;5.40;;;4.90;;
3627;SDS011;1830;49.000;12.074;2023-04-03T01:12:42;5.70;;;4.57;;
3627;SDS011;1830;49.000;12.074;2023-04-03T01:15:11;4.50;;;4.10;;
3627;SDS011;1830;49.000;12.074;2023-04-03T01:17:40;4.70;;;4.30;;
3627;SDS011;1830;49.000;12.074;2023-04-03T01:23:25;4.50;;;4.10;;
3627;SDS011;1830;49.000;12.074;2023-04-03T01:26:03;4.77;;;4.37;;
3627;SDS011;1830;49.000;12.074;2023-04-03T01:28:34;11.70;;;4.43;;
3627;SDS011;1830;49.000;12.074;2023-04-03T01:31:03;4.90;;;3.50;;
3627;SDS011;1830;49.000;12.074;2023-04-03T01:36:15;4.77;;;4.27;;
3627;SDS011;1830;49.000;12.074;2023-04-03T01:38:43;7.80;;;4.70;;
3627;SDS011;1830;49.000;12.074;2023-04-03T01:41:10;8.23;;;5.20;;
3627;SDS011;1830;49.000;12.074;2023-04-03T01:43:37;4.63;;;4.33;;
3627;SDS011;1830;49.000;12.074;2023-04-03T01:46:04;4.80;;;4.13;;
3627;SDS011;1830;49.000;12.074;2023-04-03T01:48:30;5.50;;;4.97;;
3627;SDS011;1830;49.000;12.074;2023-04-03T01:50:58;6.17;;;4.70;;
3627;SDS011;1830;49.000;12.074;2023-04-03T01:53:25;6.53;;;4.80;;
3627;SDS011;1830;49.000;12.074;2023-04-03T01:55:52;7.30;;;4.57;;
3627;SDS011;1830;49.000;12.074;2023-04-03T01:58:19;5.33;;;4.30;;
3627;SDS011;1830;49.000;12.074;2023-04-03T02:00:46;5.40;;;4.37;;
3627;SDS011;1830;49.000;12.074;2023-04-03T02:03:13;4.63;;;4.20;;
3627;SDS011;1830;49.000;12.074;2023-04-03T02:05:40;5.40;;;4.90;;
3627;SDS011;1830;49.000;12.074;2023-04-03T02:08:08;6.43;;;5.40;;
3627;SDS011;1830;49.000;12.074;2023-04-03T02:10:35;5.20;;;4.30;;
3627;SDS011;1830;49.000;12.074;2023-04-03T02:13:01;5.40;;;4.90;;
3627;SDS011;1830;49.000;12.074;2023-04-03T02:15:28;5.30;;;4.73;;
3627;SDS011;1830;49.000;12.074;2023-04-03T02:17:55;4.97;;;4.53;;
3627;SDS011;1830;49.000;12.074;2023-04-03T02:20:22;4.97;;;4.57;;
3627;SDS011;1830;49.000;12.074;2023-04-03T02:22:49;5.70;;;4.80;;
3627;SDS011;1830;49.000;12.074;2023-04-03T02:25:17;5.67;;;4.90;;
3627;SDS011;1830;49.000;12.074;2023-04-03T02:27:44;6.97;;;4.97;;
3627;SDS011;1830;49.000;12.074;2023-04-03T02:30:11;5.57;;;4.93;;
3627;SDS011;1830;49.000;12.074;2023-04-03T02:32:39;5.00;;;4.57;;
3627;SDS011;1830;49.000;12.074;2023-04-03T02:35:17;4.73;;;4.23;;
3627;SDS011;1830;49.000;12.074;2023-04-03T02:37:44;4.93;;;4.50;;
3627;SDS011;1830;49.000;12.074;2023-04-03T02:40:11;8.23;;;4.80;;
3627;SDS011;1830;49.000;12.074;2023-04-03T02:42:39;5.37;;;4.70;;
3627;SDS011;1830;49.000;12.074;2023-04-03T02:45:06;4.97;;;4.47;;
3627;SDS011;1830;49.000;12.074;2023-04-03T02:47:33;7.60;;;4.57;;
3627;SDS011;1830;49.000;12.074;2023-04-03T02:50:00;4.33;;;4.03;;
3627;SDS011;1830;49.000;12.074;2023-04-03T02:52:27;5.53;;;4.07;;
3627;SDS011;1830;49.000;12.074;2023-04-03T02:54:54;6.83;;;4.73;;
3627;SDS011;1830;49.000;12.074;2023-04-03T02:57:20;7.40;;;4.67;;
3627;SDS011;1830;49.000;12.074;2023-04-03T02:59:49;5.33;;;4.80;;
3627;SDS011;1830;49.000;12.074;2023-04-03T03:02:15;5.33;;;4.77;;
3627;SDS011;1830;49.000;12.074;2023-04-03T03:04:42;5.20;;;4.70;;
3627;SDS011;1830;49.000;12.074;2023-04-03T03:07:09;5.33;;;4.83;;
3627;SDS011;1830;49.000;12.074;2023-04-03T03:09:36;8.00;;;4.70;;
3627;SDS011;1830;49.000;12.074;2023-04-03T03:12:03;5.43;;;4.93;;
3627;SDS011;1830;49.000;12.074;2023-04-03T03:14:30;4.47;;;4.00;;
3627;SDS011;1830;49.000;12.074;2023-04-03T03:16:58;9.50;;;4.53;;
3627;SDS011;1830;49.000;12.074;2023-04-03T03:19:25;5.37;;;4.87;;
3627;SDS011;1830;49.000;12.074;2023-04-03T03:21:51;7.10;;;5.07;;
3627;SDS011;1830;49.000;12.074;2023-04-03T03:24:18;5.87;;;5.00;;
3627;SDS011;1830;49.000;12.074;2023-04-03T03:26:53;5.10;;;4.40;;
3627;SDS011;1830;49.000;12.074;2023-04-03T03:29:20;5.10;;;4.63;;
3627;SDS011;1830;49.000;12.074;2023-04-03T03:31:59;5.13;;;4.63;;
3627;SDS011;1830;49.000;12.074;2023-04-03T03:34:35;5.20;;;4.63;;
3627;SDS011;1830;49.000;12.074;2023-04-03T03:37:02;6.33;;;4.83;;
3627;SDS011;1830;49.000;12.074;2023-04-03T03:39:29;5.37;;;4.87;;
3627;SDS011;1830;49.000;12.074;2023-04-03T03:41:55;6.07;;;5.23;;
3627;SDS011;1830;49.000;12.074;2023-04-03T03:44:22;6.90;;;4.47;;
3627;SDS011;1830;49.000;12.074;2023-04-03T03:46:49;5.07;;;4.67;;
3627;SDS011;1830;49.000;12.074;2023-04-03T03:49:17;5.63;;;5.13;;
3627;SDS011;1830;49.000;12.074;2023-04-03T03:51:44;5.50;;;4.50;;
3627;SDS011;1830;49.000;12.074;2023-04-03T03:54:11;5.03;;;4.63;;
3627;SDS011;1830;49.000;12.074;2023-04-03T03:56:46;5.70;;;4.60;;
3627;SDS011;1830;49.000;12.074;2023-04-03T03:59:12;4.90;;;4.37;;
3627;SDS011;1830;49.000;12.074;2023-04-03T04:01:39;7.00;;;4.87;;
3627;SDS011;1830;49.000;12.074;2023-04-03T04:04:06;5.43;;;4.70;;
3627;SDS011;1830;49.000;12.074;2023-04-03T04:06:34;6.17;;;4.80;;
3627;SDS011;1830;49.000;12.074;2023-04-03T04:09:01;4.60;;;4.20;;
3627;SDS011;1830;49.000;12.074;2023-04-03T04:11:28;6.83;;;5.30;;
3627;SDS011;1830;49.000;12.074;2023-04-03T04:13:54;5.47;;;4.77;;
3627;SDS011;1830;49.000;12.074;2023-04-03T04:16:21;8.30;;;4.70;;
3627;SDS011;1830;49.000;12.074;2023-04-03T04:18:48;4.93;;;4.50;;
3627;SDS011;1830;49.000;12.074;2023-04-03T04:21:15;6.87;;;4.67;;
3627;SDS011;1830;49.000;12.074;2023-04-03T04:23:43;5.47;;;4.60;;
3627;SDS011;1830;49.000;12.074;2023-04-03T04:26:09;4.50;;;4.17;;
3627;SDS011;1830;49.000;12.074;2023-04-03T04:28:36;5.17;;;4.67;;
3627;SDS011;1830;49.000;12.074;2023-04-03T04:31:03;9.10;;;4.80;;
3627;SDS011;1830;49.000;12.074;2023-04-03T04:33:30;5.93;;;5.40;;
3627;SDS011;1830;49.000;12.074;2023-04-03T04:35:57;7.30;;;5.10;;
3627;SDS011;1830;49.000;12.074;2023-04-03T04:38:25;5.37;;;4.37;;
3627;SDS011;1830;49.000;12.074;2023-04-03T04:40:53;6.30;;;5.60;;
3627;SDS011;1830;49.000;12.074;2023-04-03T04:43:20;5.63;;;4.70;;
3627;SDS011;1830;49.000;12.074;2023-04-03T04:45:46;7.17;;;5.17;;
3627;SDS011;1830;49.000;12.074;2023-04-03T04:48:13;5.90;;;4.63;;
3627;SDS011;1830;49.000;12.074;2023-04-03T04:50:40;6.23;;;4.20;;
3627;SDS011;1830;49.000;12.074;2023-04-03T04:53:17;16.70;;;4.60;;
3627;SDS011;1830;49.000;12.074;2023-04-03T04:55:43;5.13;;;4.10;;
3627;SDS011;1830;49.000;12.074;2023-04-03T04:58:12;7.50;;;5.60;;
3627;SDS011;1830;49.000;12.074;2023-04-03T05:00:38;7.60;;;4.77;;
3627;SDS011;1830;49.000;12.074;2023-04-03T05:05:55;10.77;;;5.47;;
3627;SDS011;1830;49.000;12.074;2023-04-03T05:08:28;6.57;;;4.90;;
3627;SDS011;1830;49.000;12.074;2023-04-03T05:10:55;5.20;;;4.60;;
3627;SDS011;1830;49.000;12.074;2023-04-03T05:13:23;5.20;;;4.67;;
3627;SDS011;1830;49.000;12.074;2023-04-03T05:15:50;4.73;;;4.30;;
3627;SDS011;1830;49.000;12.074;2023-04-03T05:18:16;8.10;;;4.93;;
3627;SDS011;1830;49.000;12.074;2023-04-03T05:20:43;8.37;;;4.57;;
3627;SDS011;1830;49.000;12.074;2023-04-03T05:23:10;5.83;;;4.77;;
3627;SDS011;1830;49.000;12.074;2023-04-03T05:25:37;6.67;;;4.97;;
3627;SDS011;1830;49.000;12.074;2023-04-03T05:28:04;7.23;;;5.00;;
3627;SDS011;1830;49.000;12.074;2023-04-03T05:30:33;7.10;;;4.93;;
3627;SDS011;1830;49.000;12.074;2023-04-03T05:33:00;7.90;;;5.30;;
3627;SDS011;1830;49.000;12.074;2023-04-03T05:35:26;4.90;;;4.50;;
3627;SDS011;1830;49.000;12.074;2023-04-03T05:37:53;6.90;;;4.87;;
3627;SDS011;1830;49.000;12.074;2023-04-03T05:40:20;11.57;;;5.03;;
3627;SDS011;1830;49.000;12.074;2023-04-03T05:42:47;9.30;;;5.23;;
3627;SDS011;1830;49.000;12.074;2023-04-03T05:45:14;10.60;;;5.80;;
3627;SDS011;1830;49.000;12.074;2023-04-03T05:47:42;5.50;;;5.00;;
3627;SDS011;1830;49.000;12.074;2023-04-03T05:50:09;6.37;;;4.80;;
3627;SDS011;1830;49.000;12.074;2023-04-03T05:52:37;5.63;;;5.03;;
3627;SDS011;1830;49.000;12.074;2023-04-03T05:55:09;8.77;;;5.90;;
3627;SDS011;1830;49.000;12.074;2023-04-03T05:57:36;7.80;;;5.10;;
3627;SDS011;1830;49.000;12.074;2023-04-03T06:00:03;14.83;;;6.17;;
3627;SDS011;1830;49.000;12.074;2023-04-03T06:02:31;7.83;;;5.20;;
3627;SDS011;1830;49.000;12.074;2023-04-03T06:05:00;6.93;;;5.27;;
3627;SDS011;1830;49.000;12.074;2023-04-03T06:07:27;12.47;;;6.60;;
3627;SDS011;1830;49.000;12.074;2023-04-03T06:09:54;8.60;;;5.97;;
3627;SDS011;1830;49.000;12.074;2023-04-03T06:12:23;9.30;;;6.80;;
3627;SDS011;1830;49.000;12.074;2023-04-03T06:14:50;8.20;;;6.20;;
3627;SDS011;1830;49.000;12.074;2023-04-03T06:17:17;8.83;;;6.40;;
3627;SDS011;1830;49.000;12.074;2023-04-03T06:19:45;11.30;;;6.10;;
3627;SDS011;1830;49.000;12.074;2023-04-03T06:22:13;9.03;;;6.53;;
3627;SDS011;1830;49.000;12.074;2023-04-03T06:24:40;12.70;;;5.87;;
3627;SDS011;1830;49.000;12.074;2023-04-03T06:27:09;14.30;;;7.93;;
3627;SDS011;1830;49.000;12.074;2023-04-03T06:29:39;9.20;;;6.23;;
3627;SDS011;1830;49.000;12.074;2023-04-03T06:32:06;9.33;;;7.10;;
3627;SDS011;1830;49.000;12.074;2023-04-03T06:34:33;11.07;;;6.70;;
3627;SDS011;1830;49.000;12.074;2023-04-03T06:37:00;15.13;;;6.80;;
3627;SDS011;1830;49.000;12.074;2023-04-03T06:39:39;9.63;;;7.30;;
3627;SDS011;1830;49.000;12.074;2023-04-03T06:49:48;10.30;;;7.13;;
3627;SDS011;1830;49.000;12.074;2023-04-03T06:52:22;10.77;;;6.20;;
3627;SDS011;1830;49.000;12.074;2023-04-03T06:54:50;12.07;;;6.10;;
3627;SDS011;1830;49.000;12.074;2023-04-03T06:57:22;13.93;;;7.30;;
3627;SDS011;1830;49.000;12.074;2023-04-03T06:59:49;10.07;;;6.13;;
3627;SDS011;1830;49.000;12.074;2023-04-03T07:02:18;6.90;;;6.17;;
3627;SDS011;1830;49.000;12.074;2023-04-03T07:04:45;10.67;;;6.17;;
3627;SDS011;1830;49.000;12.074;2023-04-03T07:07:21;7.87;;;6.47;;
3627;SDS011;1830;49.000;12.074;2023-04-03T07:09:48;7.23;;;6.33;;
3627;SDS011;1830;49.000;12.074;2023-04-03T07:12:17;11.80;;;6.50;;
3627;SDS011;1830;49.000;12.074;2023-04-03T07:14:44;8.80;;;5.87;;
3627;SDS011;1830;49.000;12.074;2023-04-03T07:17:11;11.90;;;5.77;;
3627;SDS011;1830;49.000;12.074;2023-04-03T07:19:38;11.43;;;6.10;;
3627;SDS011;1830;49.000;12.074;2023-04-03T07:22:05;12.43;;;5.97;;
3627;SDS011;1830;49.000;12.074;2023-04-03T07:24:32;12.30;;;6.03;;
3627;SDS011;1830;49.000;12.074;2023-04-03T07:27:00;10.73;;;6.03;;
3627;SDS011;1830;49.000;12.074;2023-04-03T07:29:29;7.70;;;5.20;;
3627;SDS011;1830;49.000;12.074;2023-04-03T07:31:56;8.87;;;5.83;;
3627;SDS011;1830;49.000;12.074;2023-04-03T07:37:10;8.53;;;6.37;;
3627;SDS011;1830;49.000;12.074;2023-04-03T07:39:37;7.17;;;5.93;;
3627;SDS011;1830;49.000;12.074;2023-04-03T07:42:04;6.20;;;4.53;;
3627;SDS011;1830;49.000;12.074;2023-04-03T07:44:33;4.73;;;4.33;;
3627;SDS011;1830;49.000;12.074;2023-04-03T07:47:00;8.73;;;5.57;;
3627;SDS011;1830;49.000;12.074;2023-04-03T07:49:33;9.43;;;4.13;;
3627;SDS011;1830;49.000;12.074;2023-04-03T07:52:08;6.10;;;4.67;;
3627;SDS011;1830;49.000;12.074;2023-04-03T07:54:35;7.13;;;4.27;;
3627;SDS011;1830;49.000;12.074;2023-04-03T07:57:03;17.50;;;4.77;;
3627;SDS011;1830;49.000;12.074;2023-04-03T07:59:30;7.17;;;4.57;;
3627;SDS011;1830;49.000;12.074;2023-04-03T08:01:58;9.87;;;5.13;;
3627;SDS011;1830;49.000;12.074;2023-04-03T08:04:26;4.87;;;3.60;;
3627;SDS011;1830;49.000;12.074;2023-04-03T08:06:53;9.90;;;4.40;;
3627;SDS011;1830;49.000;12.074;2023-04-03T08:09:31;8.73;;;4.90;;
3627;SDS011;1830;49.000;12.074;2023-04-03T08:11:58;6.97;;;4.30;;
3627;SDS011;1830;49.000;12.074;2023-04-03T08:14:26;8.37;;;4.00;;
3627;SDS011;1830;49.000;12.074;2023-04-03T08:16:52;7.33;;;4.20;;
3627;SDS011;1830;49.000;12.074;2023-04-03T08:19:21;5.00;;;4.50;;
3627;SDS011;1830;49.000;12.074;2023-04-03T08:21:47;4.33;;;3.80;;
3627;SDS011;1830;49.000;12.074;2023-04-03T08:24:14;13.97;;;4.40;;
3627;SDS011;1830;49.000;12.074;2023-04-03T08:26:53;4.30;;;3.90;;
3627;SDS011;1830;49.000;12.074;2023-04-03T08:29:20;4.60;;;3.87;;
3627;SDS011;1830;49.000;12.074;2023-04-03T08:31:47;9.50;;;4.40;;
3627;SDS011;1830;49.000;12.074;2023-04-03T08:34:14;6.33;;;4.23;;
3627;SDS011;1830;49.000;12.074;2023-04-03T08:36:43;9.23;;;4.20;;
3627;SDS011;1830;49.000;12.074;2023-04-03T08:39:10;8.20;;;5.33;;
3627;SDS011;1830;49.000;12.074;2023-04-03T08:41:37;10.53;;;6.07;;
3627;SDS011;1830;49.000;12.074;2023-04-03T08:47:14;8.77;;;6.27;;
3627;SDS011;1830;49.000;12.074;2023-04-03T08:49:52;6.80;;;4.40;;
3627;SDS011;1830;49.000;12.074;2023-04-03T08:52:25;7.63;;;4.37;;
3627;SDS011;1830;49.000;12.074;2023-04-03T08:55:00;7.20;;;5.07;;
3627;SDS011;1830;49.000;12.074;2023-04-03T08:57:29;5.00;;;3.80;;
3627;SDS011;1830;49.000;12.074;2023-04-03T08:59:59;6.63;;;4.47;;
3627;SDS011;1830;49.000;12.074;2023-04-03T09:02:43;5.67;;;4.20;;
3627;SDS011;1830;49.000;12.074;2023-04-03T09:05:12;6.03;;;3.77;;
3627;SDS011;1830;49.000;12.074;2023-04-03T09:07:45;5.70;;;3.20;;
3627;SDS011;1830;49.000;12.074;2023-04-03T09:10:15;3.80;;;3.00;;
3627;SDS011;1830;49.000;12.074;2023-04-03T09:12:58;4.90;;;2.87;;
3627;SDS011;1830;49.000;12.074;2023-04-03T09:15:30;3.63;;;3.17;;
3627;SDS011;1830;49.000;12.074;2023-04-03T09:17:59;3.70;;;2.67;;
3627;SDS011;1830;49.000;12.074;2023-04-03T09:20:32;6.57;;;4.40;;
3627;SDS011;1830;49.000;12.074;2023-04-03T09:23:15;3.23;;;2.60;;
3627;SDS011;1830;49.000;12.074;2023-04-03T09:25:47;3.30;;;2.77;;
3627;SDS011;1830;49.000;12.074;2023-04-03T09:28:17;6.83;;;3.03;;
3627;SDS011;1830;49.000;12.074;2023-04-03T09:30:43;4.83;;;2.77;;
3627;SDS011;1830;49.000;12.074;2023-04-03T09:33:11;5.00;;;3.00;;
3627;SDS011;1830;49.000;12.074;2023-04-03T09:35:40;3.90;;;2.63;;
3627;SDS011;1830;49.000;12.074;2023-04-03T09:38:17;5.20;;;3.47;;
3627;SDS011;1830;49.000;12.074;2023-04-03T09:40:46;3.50;;;2.37;;
3627;SDS011;1830;49.000;12.074;2023-04-03T09:43:26;4.03;;;2.40;;
3627;SDS011;1830;49.000;12.074;2023-04-03T09:45:55;3.43;;;2.00;;
3627;SDS011;1830;49.000;12.074;2023-04-03T09:48:23;3.00;;;1.97;;
3627;SDS011;1830;49.000;12.074;2023-04-03T09:53:43;3.10;;;2.70;;
3627;SDS011;1830;49.000;12.074;2023-04-03T09:59:12;1.93;;;1.83;;
3627;SDS011;1830;49.000;12.074;2023-04-03T10:01:57;4.27;;;2.40;;
3627;SDS011;1830;49.000;12.074;2023-04-03T10:04:39;2.73;;;2.53;;
3627;SDS011;1830;49.000;12.074;2023-04-03T10:09:57;4.27;;;2.60;;
3627;SDS011;1830;49.000;12.074;2023-04-03T10:12:26;3.10;;;2.50;;
3627;SDS011;1830;49.000;12.074;2023-04-03T10:14:54;2.70;;;2.50;;
3627;SDS011;1830;49.000;12.074;2023-04-03T10:17:37;2.80;;;2.60;;
3627;SDS011;1830;49.000;12.074;2023-04-03T10:20:19;7.37;;;4.53;;
3627;SDS011;1830;49.000;12.074;2023-04-03T10:23:15;5.13;;;2.90;;
3627;SDS011;1830;49.000;12.074;2023-04-03T10:25:50;5.23;;;2.97;;
3627;SDS011;1830;49.000;12.074;2023-04-03T10:28:30;3.57;;;3.30;;
3627;SDS011;1830;49.000;12.074;2023-04-03T10:31:05;2.63;;;2.43;;
3627;SDS011;1830;49.000;12.074;2023-04-03T10:33:39;3.63;;;2.60;;
3627;SDS011;1830;49.000;12.074;2023-04-03T10:36:27;4.57;;;3.23;;
3627;SDS011;1830;49.000;12.074;2023-04-03T10:39:17;3.20;;;2.37;;
3627;SDS011;1830;49.000;12.074;2023-04-03T10:42:05;4.37;;;2.27;;
3627;SDS011;1830;49.000;12.074;2023-04-03T10:44:52;2.30;;;2.10;;
3627;SDS011;1830;49.000;12.074;2023-04-03T10:47:35;2.67;;;2.20;;
3627;SDS011;1830;49.000;12.074;2023-04-03T10:50:20;2.27;;;2.07;;
3627;SDS011;1830;49.000;12.074;2023-04-03T10:52:56;4.00;;;2.63;;
3627;SDS011;1830;49.000;12.074;2023-04-03T10:55:30;3.00;;;2.50;;
3627;SDS011;1830;49.000;12.074;2023-04-03T10:58:06;4.20;;;2.80;;
3627;SDS011;1830;49.000;12.074;2023-04-03T11:00:41;5.97;;;2.40;;
3627;SDS011;1830;49.000;12.074;2023-04-03T11:03:13;2.57;;;2.37;;
3627;SDS011;1830;49.000;12.074;2023-04-03T11:05:43;2.10;;;1.77;;
3627;SDS011;1830;49.000;12.074;2023-04-03T11:08:13;7.37;;;2.97;;
3627;SDS011;1830;49.000;12.074;2023-04-03T11:10:46;2.73;;;2.30;;
3627;SDS011;1830;49.000;12.074;2023-04-03T11:13:18;3.53;;;2.47;;
3627;SDS011;1830;49.000;12.074;2023-04-03T11:15:48;2.23;;;1.77;;
3627;SDS011;1830;49.000;12.074;2023-04-03T11:18:17;2.63;;;2.10;;
3627;SDS011;1830;49.000;12.074;2023-04-03T11:20:50;3.00;;;2.47;;
3627;SDS011;1830;49.000;12.074;2023-04-03T11:23:26;3.53;;;2.00;;
3627;SDS011;1830;49.000;12.074;2023-04-03T11:25:56;7.30;;;2.00;;
3627;SDS011;1830;49.000;12.074;2023-04-03T11:28:34;3.33;;;2.40;;
3627;SDS011;1830;49.000;12.074;2023-04-03T11:31:05;3.30;;;2.20;;
3627;SDS011;1830;49.000;12.074;2023-04-03T11:33:42;7.00;;;2.43;;
3627;SDS011;1830;49.000;12.074;2023-04-03T11:36:18;5.20;;;2.77;;
3627;SDS011;1830;49.000;12.074;2023-04-03T11:38:47;6.33;;;2.70;;
3627;SDS011;1830;49.000;12.074;2023-04-03T11:41:18;2.67;;;2.17;;
3627;SDS011;1830;49.000;12.074;2023-04-03T11:43:58;2.67;;;2.07;;
3627;SDS011;1830;49.000;12.074;2023-04-03T11:58:25;2.43;;;2.17;;
3627;SDS011;1830;49.000;12.074;2023-04-03T12:00:59;2.83;;;2.60;;
3627;SDS011;1830;49.000;12.074;2023-04-03T12:12:29;4.97;;;3.60;;
3627;SDS011;1830;49.000;12.074;2023-04-03T12:15:11;4.27;;;2.70;;
3627;SDS011;1830;49.000;12.074;2023-04-03T12:17:48;5.50;;;2.70;;
3627;SDS011;1830;49.000;12.074;2023-04-03T12:23:29;3.30;;;3.00;;
3627;SDS011;1830;49.000;12.074;2023-04-03T12:26:02;4.10;;;2.27;;
3627;SDS011;1830;49.000;12.074;2023-04-03T12:28:47;2.50;;;2.30;;
3627;SDS011;1830;49.000;12.074;2023-04-03T12:31:18;2.70;;;2.30;;
3627;SDS011;1830;49.000;12.074;2023-04-03T12:34:00;2.87;;;2.67;;
3627;SDS011;1830;49.000;12.074;2023-04-03T12:36:39;4.03;;;2.00;;
3627;SDS011;1830;49.000;12.074;2023-04-03T12:39:25;3.07;;;2.50;;
3627;SDS011;1830;49.000;12.074;2023-04-03T12:44:45;2.10;;;1.93;;
3627;SDS011;1830;49.000;12.074;2023-04-03T12:47:26;6.53;;;3.00;;
3627;SDS011;1830;49.000;12.074;2023-04-03T12:49:59;2.57;;;2.37;;
3627;SDS011;1830;49.000;12.074;2023-04-03T12:52:33;4.17;;;2.40;;
3627;SDS011;1830;49.000;12.074;2023-04-03T12:55:07;3.23;;;2.57;;
3627;SDS011;1830;49.000;12.074;2023-04-03T12:57:40;2.80;;;2.17;;
3627;SDS011;1830;49.000;12.074;2023-04-03T13:02:57;8.17;;;2.57;;
3627;SDS011;1830;49.000;12.074;2023-04-03T13:05:26;2.33;;;2.17;;
3627;SDS011;1830;49.000;12.074;2023-04-03T13:07:56;7.50;;;5.90;;
3627;SDS011;1830;49.000;12.074;2023-04-03T13:10:27;2.60;;;2.33;;
3627;SDS011;1830;49.000;12.074;2023-04-03T13:12:54;7.50;;;2.47;;
3627;SDS011;1830;49.000;12.074;2023-04-03T13:15:24;4.80;;;2.77;;
3627;SDS011;1830;49.000;12.074;2023-04-03T13:17:52;3.33;;;2.37;;
3627;SDS011;1830;49.000;12.074;2023-04-03T13:20:21;2.20;;;2.10;;
3627;SDS011;1830;49.000;12.074;2023-04-03T13:22:53;3.73;;;2.23;;
3627;SDS011;1830;49.000;12.074;2023-04-03T13:25:23;3.50;;;1.97;;
3627;SDS011;1830;49.000;12.074;2023-04-03T13:27:53;2.87;;;2.57;;
3627;SDS011;1830;49.000;12.074;2023-04-03T13:30:23;2.43;;;2.23;;
3627;SDS011;1830;49.000;12.074;2023-04-03T13:32:54;8.40;;;2.50;;
3627;SDS011;1830;49.000;12.074;2023-04-03T13:35:29;4.50;;;2.30;;
3627;SDS011;1830;49.000;12.074;2023-04-03T13:38:04;3.30;;;2.50;;
3627;SDS011;1830;49.000;12.074;2023-04-03T13:40:33;2.40;;;2.17;;
3627;SDS011;1830;49.000;12.074;2023-04-03T13:43:01;5.23;;;2.90;;
3627;SDS011;1830;49.000;12.074;2023-04-03T13:45:30;2.40;;;2.20;;
3627;SDS011;1830;49.000;12.074;2023-04-03T13:48:08;2.23;;;2.03;;
3627;SDS011;1830;49.000;12.074;2023-04-03T13:50:49;2.60;;;2.40;;
3627;SDS011;1830;49.000;12.074;2023-04-03T13:53:24;2.33;;;2.13;;
3627;SDS011;1830;49.000;12.074;2023-04-03T13:55:53;3.87;;;2.43;;
3627;SDS011;1830;49.000;12.074;2023-04-03T13:58:28;2.77;;;2.30;;
3627;SDS011;1830;49.000;12.074;2023-04-03T14:01:00;3.03;;;2.23;;
3627;SDS011;1830;49.000;12.074;2023-04-03T14:03:38;2.10;;;2.00;;
3627;SDS011;1830;49.000;12.074;2023-04-03T14:06:08;2.37;;;2.03;;
3627;SDS011;1830;49.000;12.074;2023-04-03T14:08:39;2.87;;;2.60;;
3627;SDS011;1830;49.000;12.074;2023-04-03T14:11:08;8.40;;;2.70;;
3627;SDS011;1830;49.000;12.074;2023-04-03T14:13:39;4.00;;;2.53;;
3627;SDS011;1830;49.000;12.074;2023-04-03T14:16:06;2.93;;;2.60;;
3627;SDS011;1830;49.000;12.074;2023-04-03T14:18:33;3.03;;;2.40;;
3627;SDS011;1830;49.000;12.074;2023-04-03T14:20:59;5.23;;;2.30;;
3627;SDS011;1830;49.000;12.074;2023-04-03T14:23:26;3.63;;;2.73;;
3627;SDS011;1830;49.000;12.074;2023-04-03T14:25:54;4.80;;;2.30;;
3627;SDS011;1830;49.000;12.074;2023-04-03T14:28:21;2.73;;;2.53;;
3627;SDS011;1830;49.000;12.074;2023-04-03T14:30:49;3.87;;;2.80;;
3627;SDS011;1830;49.000;12.074;2023-04-03T14:33:17;2.73;;;2.43;;
3627;SDS011;1830;49.000;12.074;2023-04-03T14:35:47;5.87;;;2.57;;
3627;SDS011;1830;49.000;12.074;2023-04-03T14:38:21;3.93;;;2.20;;
3627;SDS011;1830;49.000;12.074;2023-04-03T14:40:50;2.90;;;2.70;;
3627;SDS011;1830;49.000;12.074;2023-04-03T14:43:19;4.70;;;2.70;;
3627;SDS011;1830;49.000;12.074;2023-04-03T14:45:47;5.97;;;3.20;;
3627;SDS011;1830;49.000;12.074;2023-04-03T14:48:15;4.23;;;3.00;;
3627;SDS011;1830;49.000;12.074;2023-04-03T14:50:45;3.20;;;2.70;;
3627;SDS011;1830;49.000;12.074;2023-04-03T14:53:13;2.50;;;2.40;;
3627;SDS011;1830;49.000;12.074;2023-04-03T14:55:41;2.43;;;2.27;;
3627;SDS011;1830;49.000;12.074;2023-04-03T14:58:11;5.53;;;2.93;;
3627;SDS011;1830;49.000;12.074;2023-04-03T15:00:45;6.17;;;2.67;;
3627;SDS011;1830;49.000;12.074;2023-04-03T15:03:13;2.20;;;2.00;;
3627;SDS011;1830;49.000;12.074;2023-04-03T15:05:41;3.30;;;2.20;;
3627;SDS011;1830;49.000;12.074;2023-04-03T15:08:13;6.17;;;3.50;;
3627;SDS011;1830;49.000;12.074;2023-04-03T15:10:46;5.20;;;2.87;;
3627;SDS011;1830;49.000;12.074;2023-04-03T15:13:13;3.27;;;2.70;;
3627;SDS011;1830;49.000;12.074;2023-04-03T15:15:40;3.77;;;2.50;;
3627;SDS011;1830;49.000;12.074;2023-04-03T15:18:10;3.23;;;2.90;;
3627;SDS011;1830;49.000;12.074;2023-04-03T15:20:42;3.60;;;2.40;;
3627;SDS011;1830;49.000;12.074;2023-04-03T15:23:10;7.50;;;2.63;;
3627;SDS011;1830;49.000;12.074;2023-04-03T15:25:41;6.70;;;2.63;;
3627;SDS011;1830;49.000;12.074;2023-04-03T15:28:09;3.90;;;2.57;;
3627;SDS011;1830;49.000;12.074;2023-04-03T15:30:43;5.03;;;2.30;;
3627;SDS011;1830;49.000;12.074;2023-04-03T15:33:11;3.33;;;3.03;;
3627;SDS011;1830;49.000;12.074;2023-04-03T15:35:38;4.17;;;3.80;;
3627;SDS011;1830;49.000;12.074;2023-04-03T15:38:05;4.87;;;2.97;;
3627;SDS011;1830;49.000;12.074;2023-04-03T15:40:32;3.70;;;2.50;;
3627;SDS011;1830;49.000;12.074;2023-04-03T15:42:59;4.27;;;2.50;;
3627;SDS011;1830;49.000;12.074;2023-04-03T15:45:27;2.77;;;2.57;;
3627;SDS011;1830;49.000;12.074;2023-04-03T15:47:55;3.63;;;2.50;;
3627;SDS011;1830;49.000;12.074;2023-04-03T15:50:23;8.83;;;2.20;;
3627;SDS011;1830;49.000;12.074;2023-04-03T15:52:50;2.53;;;2.30;;
3627;SDS011;1830;49.000;12.074;2023-04-03T15:55:19;5.77;;;2.73;;
3627;SDS011;1830;49.000;12.074;2023-04-03T15:57:46;3.77;;;2.67;;
3627;SDS011;1830;49.000;12.074;2023-04-03T16:00:13;3.30;;;2.53;;
3627;SDS011;1830;49.000;12.074;2023-04-03T16:02:41;4.33;;;2.20;;
3627;SDS011;1830;49.000;12.074;2023-04-03T16:05:08;6.90;;;3.03;;
3627;SDS011;1830;49.000;12.074;2023-04-03T16:07:37;4.73;;;3.20;;
3627;SDS011;1830;49.000;12.074;2023-04-03T16:10:05;4.00;;;2.70;;
3627;SDS011;1830;49.000;12.074;2023-04-03T16:12:34;3.90;;;3.03;;
3627;SDS011;1830;49.000;12.074;2023-04-03T16:15:02;2.60;;;2.40;;
3627;SDS011;1830;49.000;12.074;2023-04-03T16:17:29;4.73;;;3.10;;
3627;SDS011;1830;49.000;12.074;2023-04-03T16:19:57;2.90;;;2.60;;